Sumifukumaru No.5 — JD3058 — position and weather

sailwx.info

Track history (hours):
 
Tides and Currents Weather Stations Pressure Air Temp Water Temp Dewpoint Dewpoint Depression Visibility Wind Speed Wind Dir Waves Ship Positions

Sumifukumaru No.5

Last reported at 2018-Feb-23 10:30 UTC. Time now 2018-Feb-23 10:39 UTC.
Position N 33°46' E 131°52'.

Length 75 m; draft 4.4 m.

Type: Cargo ship. MMSI: 431001371.

Date/timePositionNaut miles runAvg speedWind from/ knotsBaromVisibWave heightAir tempDewpointWater temp
2018-Feb-23 10:30N 33°46' E 131°52'611.2
2018-Feb-23 10:00N 33°40' E 131°51'510.8
2018-Feb-23 09:30N 33°35' E 131°50'510.4
2018-Feb-23 09:00N 33°30' E 131°49'510.4
2018-Feb-23 08:29N 33°25' E 131°46'511.2
2018-Feb-23 08:00N 33°21' E 131°43'5 0.8
2018-Feb-23 00:58N 33°16' E 131°40'2 3.5
2018-Feb-23 00:27N 33°17' E 131°41'612.8
2018-Feb-23 00:00N 33°17' E 131°48'  
2018-Feb-20 19:02N 33°14' E 132°02'213.8
2018-Feb-20 18:53N 33°16' E 132°01'512.6
2018-Feb-20 18:28N 33°18' E 131°55'612.7
2018-Feb-20 18:00N 33°18' E 131°48'612.2
2018-Feb-20 17:30N 33°18' E 131°41'2 0.3
2018-Feb-20 11:07N 33°16' E 131°40'1 5.3
2018-Feb-20 11:00N 33°16' E 131°40'611.6
2018-Feb-20 10:30N 33°22' E 131°42'0 0.1
2018-Feb-20 10:00N 33°22' E 131°42'0 0.0
2018-Feb-20 09:30N 33°22' E 131°42'0 0.0
2018-Feb-20 08:57N 33°22' E 131°42'0 0.0
2018-Feb-20 08:27N 33°22' E 131°42'0 0.0
2018-Feb-20 07:57N 33°22' E 131°42'0 0.0
2018-Feb-20 07:24N 33°22' E 131°42'0 0.0
2018-Feb-20 06:57N 33°22' E 131°42'0 0.0
2018-Feb-20 06:27N 33°22' E 131°42'1 2.2
2018-Feb-20 06:00N 33°21' E 131°42'1711.9
2018-Feb-20 04:36N 33°16' E 132°01'26110.6
2018-Feb-19 03:57N 34°33' E 137°01'713.6
2018-Feb-19 03:26N 34°37' E 136°54'613.3
2018-Feb-19 03:00N 34°41' E 136°50'713.7
2018-Feb-19 02:30N 34°47' E 136°46'713.4
2018-Feb-19 02:00N 34°54' E 136°46'613.1
2018-Feb-19 01:30N 34°60' E 136°49'4 7.4
2018-Feb-19 00:59N 35°04' E 136°51'0 0.0
2018-Feb-19 00:29N 35°04' E 136°51'0 0.0
2018-Feb-18 23:59N 35°04' E 136°51'0 0.0
2018-Feb-18 23:30N 35°04' E 136°51'0 0.0
2018-Feb-18 23:00N 35°04' E 136°51'0 0.0
2018-Feb-18 22:30N 35°04' E 136°51'0 0.0
2018-Feb-18 22:00N 35°04' E 136°51'0 0.0
2018-Feb-18 21:30N 35°04' E 136°51'0 0.0
2018-Feb-18 21:00N 35°04' E 136°51'0 0.0
2018-Feb-18 20:30N 35°04' E 136°51'0 0.0
2018-Feb-18 20:00N 35°04' E 136°51'0 0.0
2018-Feb-18 19:30N 35°04' E 136°51'0 0.0
2018-Feb-18 19:00N 35°04' E 136°51'0 0.0
2018-Feb-18 18:30N 35°04' E 136°51'0 0.0
2018-Feb-18 18:00N 35°04' E 136°51'0 0.0
2018-Feb-18 17:30N 35°04' E 136°51'0 0.0
2018-Feb-18 17:00N 35°04' E 136°51'0 0.0
2018-Feb-18 16:30N 35°04' E 136°51'0 0.0
2018-Feb-18 16:00N 35°04' E 136°51'0 0.0
2018-Feb-18 15:30N 35°04' E 136°51'0 0.0
2018-Feb-18 15:00N 35°04' E 136°51'0 0.0
2018-Feb-18 14:30N 35°04' E 136°51'0 0.0
2018-Feb-18 14:00N 35°04' E 136°51'0 0.0
2018-Feb-18 13:30N 35°04' E 136°51'0 0.0
2018-Feb-18 13:00N 35°04' E 136°51'0 0.0
2018-Feb-18 12:30N 35°04' E 136°51'0 0.0
2018-Feb-18 12:00N 35°04' E 136°51'0 0.0
2018-Feb-18 11:30N 35°04' E 136°51'0 0.0
2018-Feb-18 11:00N 35°04' E 136°51'0 0.0
2018-Feb-18 10:30N 35°04' E 136°51'0 0.0
2018-Feb-18 10:00N 35°04' E 136°51'0 0.0
2018-Feb-18 09:27N 35°04' E 136°51'0 0.0
2018-Feb-18 09:00N 35°04' E 136°51'0 0.0
2018-Feb-18 08:30N 35°04' E 136°51'0 0.0
2018-Feb-18 08:00N 35°04' E 136°51'0 0.0
2018-Feb-18 07:30N 35°04' E 136°51'0 0.0
2018-Feb-18 07:00N 35°04' E 136°51'0 0.0
2018-Feb-18 06:30N 35°04' E 136°51'0 0.0
2018-Feb-18 05:57N 35°04' E 136°51'0 0.0
2018-Feb-18 05:30N 35°04' E 136°51'0 0.0
2018-Feb-18 05:00N 35°04' E 136°51'0 0.0
2018-Feb-18 04:30N 35°04' E 136°51'0 0.0
2018-Feb-18 04:00N 35°04' E 136°51'0 0.0
2018-Feb-18 03:30N 35°04' E 136°51'0 0.0
2018-Feb-18 03:00N 35°04' E 136°51'0 0.0
2018-Feb-18 02:30N 35°04' E 136°51'0 0.0
2018-Feb-18 02:00N 35°04' E 136°51'0 0.0
2018-Feb-18 01:30N 35°04' E 136°51'0 0.0
2018-Feb-18 01:00N 35°04' E 136°51'0 0.0
2018-Feb-18 00:30N 35°04' E 136°51'0 0.0
2018-Feb-18 00:00N 35°04' E 136°51'0 0.0
2018-Feb-17 23:30N 35°04' E 136°51'0 0.0
2018-Feb-17 23:00N 35°04' E 136°51'0 0.0
2018-Feb-17 22:24N 35°04' E 136°51'0 0.0
2018-Feb-17 22:00N 35°04' E 136°51'0 0.0
2018-Feb-17 21:27N 35°04' E 136°51'0 0.0
2018-Feb-17 21:00N 35°04' E 136°51'0 0.0
2018-Feb-17 20:30N 35°04' E 136°51'0 0.0
2018-Feb-17 19:57N 35°04' E 136°51'0 0.0
2018-Feb-17 19:30N 35°04' E 136°51'0 0.0
2018-Feb-17 19:00N 35°04' E 136°51'0 0.0
2018-Feb-17 18:30N 35°04' E 136°51'0 0.0
2018-Feb-17 18:00N 35°04' E 136°51'0 0.0
2018-Feb-17 17:30N 35°04' E 136°51'0 0.0
2018-Feb-17 17:00N 35°04' E 136°51'0 0.0
2018-Feb-17 16:27N 35°04' E 136°51'0 0.0
2018-Feb-17 16:00N 35°04' E 136°51'0 0.0
2018-Feb-17 15:30N 35°04' E 136°51'0 0.0
2018-Feb-17 15:00N 35°04' E 136°51'0 0.0
2018-Feb-17 14:30N 35°04' E 136°51'0 0.0
2018-Feb-17 14:00N 35°04' E 136°51'0 0.0
2018-Feb-17 13:30N 35°04' E 136°51'0 0.0
2018-Feb-17 13:00N 35°04' E 136°51'0 0.0
2018-Feb-17 12:30N 35°04' E 136°51'0 0.0
2018-Feb-17 12:00N 35°04' E 136°51'0 0.0
2018-Feb-17 11:30N 35°04' E 136°51'0 0.0
2018-Feb-17 11:00N 35°04' E 136°51'0 0.0
2018-Feb-17 10:30N 35°04' E 136°51'0 0.0
2018-Feb-17 09:57N 35°04' E 136°51'0 0.0
2018-Feb-17 09:30N 35°04' E 136°51'0 0.0
2018-Feb-17 09:00N 35°04' E 136°51'0 0.0
2018-Feb-17 08:30N 35°04' E 136°51'0 0.0
2018-Feb-17 08:00N 35°04' E 136°51'0 0.0
2018-Feb-17 07:30N 35°04' E 136°51'0 0.0
2018-Feb-17 06:59N 35°04' E 136°51'0 0.0
2018-Feb-17 06:29N 35°04' E 136°51'0 0.0
2018-Feb-17 05:59N 35°04' E 136°51'0 0.0
2018-Feb-17 05:29N 35°04' E 136°51'0 0.0
2018-Feb-17 04:59N 35°04' E 136°51'0 0.0
2018-Feb-17 04:29N 35°04' E 136°51'0 0.0
2018-Feb-17 03:59N 35°04' E 136°51'0 0.0
2018-Feb-17 03:29N 35°04' E 136°51'0 0.0
2018-Feb-17 02:59N 35°04' E 136°51'0 0.0
2018-Feb-17 02:29N 35°04' E 136°51'1 1.3
2018-Feb-17 02:00N 35°03' E 136°50'3 5.9
2018-Feb-17 01:31N 35°05' E 136°53'0 0.1
2018-Feb-17 00:59N 35°05' E 136°53'0 0.1
2018-Feb-17 00:29N 35°05' E 136°53'0 0.0
2018-Feb-16 23:59N 35°05' E 136°53'0 0.0
2018-Feb-16 23:29N 35°05' E 136°53'0 0.0
2018-Feb-16 22:59N 35°05' E 136°53'0 0.0
2018-Feb-16 22:29N 35°05' E 136°53'0 0.1
2018-Feb-16 21:59N 35°05' E 136°53'0 0.0
2018-Feb-16 21:29N 35°05' E 136°53'0 0.1
2018-Feb-16 20:59N 35°05' E 136°53'0 0.0
2018-Feb-16 20:29N 35°05' E 136°53'0 0.0
2018-Feb-16 19:59N 35°05' E 136°53'0 0.0
2018-Feb-16 19:29N 35°05' E 136°53'0 0.0
2018-Feb-16 18:59N 35°05' E 136°53'0 0.0
2018-Feb-16 18:29N 35°05' E 136°53'1 1.2
2018-Feb-16 18:00N 35°04' E 136°52'510.7
2018-Feb-16 17:30N 34°60' E 136°49'611.1
2018-Feb-16 17:00N 34°54' E 136°47'107 7.2
2018-Feb-16 02:12N 33°51' E 135°03'211.8
2018-Feb-16 02:00N 33°53' E 135°01'611.9
2018-Feb-16 01:30N 33°59' E 135°01'611.7
2018-Feb-16 01:00N 34°04' E 135°01'611.5
2018-Feb-16 00:30N 34°10' E 135°02'611.1
2018-Feb-16 00:00N 34°16' E 135°03'510.9
2018-Feb-15 23:30N 34°21' E 135°05'510.7
2018-Feb-15 23:00N 34°25' E 135°09'611.1
2018-Feb-15 22:30N 34°29' E 135°14'611.5
2018-Feb-15 22:00N 34°33' E 135°18'510.8
2018-Feb-15 21:30N 34°36' E 135°24'3 6.7
2018-Feb-15 21:00N 34°34' E 135°27'0 0.1
2018-Feb-15 20:27N 34°34' E 135°27'0 0.1
2018-Feb-15 19:57N 34°34' E 135°27'0 0.1
2018-Feb-15 19:30N 34°34' E 135°27'0 0.0
2018-Feb-15 19:00N 34°34' E 135°27'0 0.1
2018-Feb-15 18:30N 34°34' E 135°27'0 0.1
2018-Feb-15 17:57N 34°34' E 135°27'0 0.1
2018-Feb-15 17:29N 34°34' E 135°27'0 0.1
2018-Feb-15 16:56N 34°34' E 135°27'0 0.0
2018-Feb-15 16:30N 34°34' E 135°27'0 0.0
2018-Feb-15 15:57N 34°34' E 135°27'0 0.0
2018-Feb-15 15:27N 34°34' E 135°27'0 0.0
2018-Feb-15 14:56N 34°34' E 135°27'0 0.0
2018-Feb-15 14:27N 34°34' E 135°27'0 0.0
2018-Feb-15 14:00N 34°34' E 135°27'0 0.1
2018-Feb-15 13:30N 34°34' E 135°27'0 0.1
2018-Feb-15 13:00N 34°34' E 135°27'0 0.0
2018-Feb-15 12:30N 34°34' E 135°27'0 0.1
2018-Feb-15 11:56N 34°34' E 135°27'0 0.1
2018-Feb-15 11:26N 34°34' E 135°27'0 0.1
2018-Feb-15 10:56N 34°34' E 135°27'0 0.1
2018-Feb-15 10:21N 34°34' E 135°27'0 0.1
2018-Feb-15 09:54N 34°34' E 135°27'0 0.0
2018-Feb-15 09:30N 34°34' E 135°27'0 0.0
2018-Feb-15 08:58N 34°34' E 135°27'0 0.0
2018-Feb-15 08:22N 34°34' E 135°27'0 0.1
2018-Feb-15 07:55N 34°34' E 135°27'0 0.1
2018-Feb-15 07:28N 34°34' E 135°27'0 0.2
2018-Feb-15 07:00N 34°34' E 135°27'4 8.0
2018-Feb-15 06:31N 34°37' E 135°23'3 6.8
2018-Feb-15 06:00N 34°40' E 135°26'0 0.0
2018-Feb-15 05:29N 34°40' E 135°26'0 0.0
2018-Feb-15 04:59N 34°40' E 135°26'0 0.0
2018-Feb-15 04:29N 34°40' E 135°26'0 0.0
2018-Feb-15 03:59N 34°40' E 135°26'0 0.0
2018-Feb-15 03:29N 34°40' E 135°26'0 0.0
2018-Feb-15 02:59N 34°40' E 135°26'0 0.0
2018-Feb-15 02:29N 34°40' E 135°26'0 0.0
2018-Feb-15 01:59N 34°40' E 135°26'0 0.0
2018-Feb-15 01:29N 34°40' E 135°26'0 0.3
2018-Feb-15 01:00N 34°39' E 135°26'3 5.9
2018-Feb-15 00:30N 34°38' E 135°23'2 3.2
2018-Feb-14 23:59N 34°37' E 135°21'0 0.1
2018-Feb-14 23:30N 34°37' E 135°21'0 0.0
2018-Feb-14 22:59N 34°37' E 135°21'0 0.1
2018-Feb-14 22:30N 34°37' E 135°21'0 0.1
2018-Feb-14 21:59N 34°37' E 135°21'0 0.0
2018-Feb-14 21:30N 34°37' E 135°21'0 0.0
2018-Feb-14 20:59N 34°37' E 135°21'0 0.0
2018-Feb-14 20:29N 34°37' E 135°21'0 0.2
2018-Feb-14 19:59N 34°37' E 135°21'0 0.0
2018-Feb-14 19:29N 34°37' E 135°21'0 0.0
2018-Feb-14 19:00N 34°37' E 135°21'5 9.4
2018-Feb-14 18:30N 34°36' E 135°16'612.3
2018-Feb-14 18:01N 34°35' E 135°08'713.8
2018-Feb-14 17:31N 34°37' E 135°01'815.2
2018-Feb-14 17:00N 34°34' E 134°52'713.4
2018-Feb-14 16:30N 34°32' E 134°44'612.7
2018-Feb-14 16:00N 34°29' E 134°37'612.3
2018-Feb-14 15:30N 34°27' E 134°30'1412.3
2018-Feb-14 14:22N 34°24' E 134°14'0 0.0
2018-Feb-13 11:37N 34°24' E 134°14'213.3
2018-Feb-13 11:29N 34°24' E 134°16'612.9
2018-Feb-13 11:00N 34°25' E 134°24'  
Track history (hours):
 
Tides and Currents Weather Stations Pressure Air Temp Water Temp Dewpoint Dewpoint Depression Visibility Wind Speed Wind Dir Waves Ship Positions

Sumifukumaru No.5

Last reported at 2018-Feb-23 10:30 UTC. Time now 2018-Feb-23 10:39 UTC.
Position N 33°46' E 131°52'.

Length 75 m; draft 4.4 m.

Type: Cargo ship. MMSI: 431001371.

Date/timePositionNaut miles runAvg speedWind from/ knotsBaromVisibWave heightAir tempDewpointWater temp
2018-Feb-23 10:30N 33°46' E 131°52'611.2
2018-Feb-23 10:00N 33°40' E 131°51'510.8
2018-Feb-23 09:30N 33°35' E 131°50'510.4
2018-Feb-23 09:00N 33°30' E 131°49'510.4
2018-Feb-23 08:29N 33°25' E 131°46'511.2
2018-Feb-23 08:00N 33°21' E 131°43'5 0.8
2018-Feb-23 00:58N 33°16' E 131°40'2 3.5
2018-Feb-23 00:27N 33°17' E 131°41'612.8
2018-Feb-23 00:00N 33°17' E 131°48'  
2018-Feb-20 19:02N 33°14' E 132°02'213.8
2018-Feb-20 18:53N 33°16' E 132°01'512.6
2018-Feb-20 18:28N 33°18' E 131°55'612.7
2018-Feb-20 18:00N 33°18' E 131°48'612.2
2018-Feb-20 17:30N 33°18' E 131°41'2 0.3
2018-Feb-20 11:07N 33°16' E 131°40'1 5.3
2018-Feb-20 11:00N 33°16' E 131°40'611.6
2018-Feb-20 10:30N 33°22' E 131°42'0 0.1
2018-Feb-20 10:00N 33°22' E 131°42'0 0.0
2018-Feb-20 09:30N 33°22' E 131°42'0 0.0
2018-Feb-20 08:57N 33°22' E 131°42'0 0.0
2018-Feb-20 08:27N 33°22' E 131°42'0 0.0
2018-Feb-20 07:57N 33°22' E 131°42'0 0.0
2018-Feb-20 07:24N 33°22' E 131°42'0 0.0
2018-Feb-20 06:57N 33°22' E 131°42'0 0.0
2018-Feb-20 06:27N 33°22' E 131°42'1 2.2
2018-Feb-20 06:00N 33°21' E 131°42'1711.9
2018-Feb-20 04:36N 33°16' E 132°01'26110.6
2018-Feb-19 03:57N 34°33' E 137°01'713.6
2018-Feb-19 03:26N 34°37' E 136°54'613.3
2018-Feb-19 03:00N 34°41' E 136°50'713.7
2018-Feb-19 02:30N 34°47' E 136°46'713.4
2018-Feb-19 02:00N 34°54' E 136°46'613.1
2018-Feb-19 01:30N 34°60' E 136°49'4 7.4
2018-Feb-19 00:59N 35°04' E 136°51'0 0.0
2018-Feb-19 00:29N 35°04' E 136°51'0 0.0
2018-Feb-18 23:59N 35°04' E 136°51'0 0.0
2018-Feb-18 23:30N 35°04' E 136°51'0 0.0
2018-Feb-18 23:00N 35°04' E 136°51'0 0.0
2018-Feb-18 22:30N 35°04' E 136°51'0 0.0
2018-Feb-18 22:00N 35°04' E 136°51'0 0.0
2018-Feb-18 21:30N 35°04' E 136°51'0 0.0
2018-Feb-18 21:00N 35°04' E 136°51'0 0.0
2018-Feb-18 20:30N 35°04' E 136°51'0 0.0
2018-Feb-18 20:00N 35°04' E 136°51'0 0.0
2018-Feb-18 19:30N 35°04' E 136°51'0 0.0
2018-Feb-18 19:00N 35°04' E 136°51'0 0.0
2018-Feb-18 18:30N 35°04' E 136°51'0 0.0
2018-Feb-18 18:00N 35°04' E 136°51'0 0.0
2018-Feb-18 17:30N 35°04' E 136°51'0 0.0
2018-Feb-18 17:00N 35°04' E 136°51'0 0.0
2018-Feb-18 16:30N 35°04' E 136°51'0 0.0
2018-Feb-18 16:00N 35°04' E 136°51'0 0.0
2018-Feb-18 15:30N 35°04' E 136°51'0 0.0
2018-Feb-18 15:00N 35°04' E 136°51'0 0.0
2018-Feb-18 14:30N 35°04' E 136°51'0 0.0
2018-Feb-18 14:00N 35°04' E 136°51'0 0.0
2018-Feb-18 13:30N 35°04' E 136°51'0 0.0
2018-Feb-18 13:00N 35°04' E 136°51'0 0.0
2018-Feb-18 12:30N 35°04' E 136°51'0 0.0
2018-Feb-18 12:00N 35°04' E 136°51'0 0.0
2018-Feb-18 11:30N 35°04' E 136°51'0 0.0
2018-Feb-18 11:00N 35°04' E 136°51'0 0.0
2018-Feb-18 10:30N 35°04' E 136°51'0 0.0
2018-Feb-18 10:00N 35°04' E 136°51'0 0.0
2018-Feb-18 09:27N 35°04' E 136°51'0 0.0
2018-Feb-18 09:00N 35°04' E 136°51'0 0.0
2018-Feb-18 08:30N 35°04' E 136°51'0 0.0
2018-Feb-18 08:00N 35°04' E 136°51'0 0.0
2018-Feb-18 07:30N 35°04' E 136°51'0 0.0
2018-Feb-18 07:00N 35°04' E 136°51'0 0.0
2018-Feb-18 06:30N 35°04' E 136°51'0 0.0
2018-Feb-18 05:57N 35°04' E 136°51'0 0.0
2018-Feb-18 05:30N 35°04' E 136°51'0 0.0
2018-Feb-18 05:00N 35°04' E 136°51'0 0.0
2018-Feb-18 04:30N 35°04' E 136°51'0 0.0
2018-Feb-18 04:00N 35°04' E 136°51'0 0.0
2018-Feb-18 03:30N 35°04' E 136°51'0 0.0
2018-Feb-18 03:00N 35°04' E 136°51'0 0.0
2018-Feb-18 02:30N 35°04' E 136°51'0 0.0
2018-Feb-18 02:00N 35°04' E 136°51'0 0.0
2018-Feb-18 01:30N 35°04' E 136°51'0 0.0
2018-Feb-18 01:00N 35°04' E 136°51'0 0.0
2018-Feb-18 00:30N 35°04' E 136°51'0 0.0
2018-Feb-18 00:00N 35°04' E 136°51'0 0.0
2018-Feb-17 23:30N 35°04' E 136°51'0 0.0
2018-Feb-17 23:00N 35°04' E 136°51'0 0.0
2018-Feb-17 22:24N 35°04' E 136°51'0 0.0
2018-Feb-17 22:00N 35°04' E 136°51'0 0.0
2018-Feb-17 21:27N 35°04' E 136°51'0 0.0
2018-Feb-17 21:00N 35°04' E 136°51'0 0.0
2018-Feb-17 20:30N 35°04' E 136°51'0 0.0
2018-Feb-17 19:57N 35°04' E 136°51'0 0.0
2018-Feb-17 19:30N 35°04' E 136°51'0 0.0
2018-Feb-17 19:00N 35°04' E 136°51'0 0.0
2018-Feb-17 18:30N 35°04' E 136°51'0 0.0
2018-Feb-17 18:00N 35°04' E 136°51'0 0.0
2018-Feb-17 17:30N 35°04' E 136°51'0 0.0
2018-Feb-17 17:00N 35°04' E 136°51'0 0.0
2018-Feb-17 16:27N 35°04' E 136°51'0 0.0
2018-Feb-17 16:00N 35°04' E 136°51'0 0.0
2018-Feb-17 15:30N 35°04' E 136°51'0 0.0
2018-Feb-17 15:00N 35°04' E 136°51'0 0.0
2018-Feb-17 14:30N 35°04' E 136°51'0 0.0
2018-Feb-17 14:00N 35°04' E 136°51'0 0.0
2018-Feb-17 13:30N 35°04' E 136°51'0 0.0
2018-Feb-17 13:00N 35°04' E 136°51'0 0.0
2018-Feb-17 12:30N 35°04' E 136°51'0 0.0
2018-Feb-17 12:00N 35°04' E 136°51'0 0.0
2018-Feb-17 11:30N 35°04' E 136°51'0 0.0
2018-Feb-17 11:00N 35°04' E 136°51'0 0.0
2018-Feb-17 10:30N 35°04' E 136°51'0 0.0
2018-Feb-17 09:57N 35°04' E 136°51'0 0.0
2018-Feb-17 09:30N 35°04' E 136°51'0 0.0
2018-Feb-17 09:00N 35°04' E 136°51'0 0.0
2018-Feb-17 08:30N 35°04' E 136°51'0 0.0
2018-Feb-17 08:00N 35°04' E 136°51'0 0.0
2018-Feb-17 07:30N 35°04' E 136°51'0 0.0
2018-Feb-17 06:59N 35°04' E 136°51'0 0.0
2018-Feb-17 06:29N 35°04' E 136°51'0 0.0
2018-Feb-17 05:59N 35°04' E 136°51'0 0.0
2018-Feb-17 05:29N 35°04' E 136°51'0 0.0
2018-Feb-17 04:59N 35°04' E 136°51'0 0.0
2018-Feb-17 04:29N 35°04' E 136°51'0 0.0
2018-Feb-17 03:59N 35°04' E 136°51'0 0.0
2018-Feb-17 03:29N 35°04' E 136°51'0 0.0
2018-Feb-17 02:59N 35°04' E 136°51'0 0.0
2018-Feb-17 02:29N 35°04' E 136°51'1 1.3
2018-Feb-17 02:00N 35°03' E 136°50'3 5.9
2018-Feb-17 01:31N 35°05' E 136°53'0 0.1
2018-Feb-17 00:59N 35°05' E 136°53'0 0.1
2018-Feb-17 00:29N 35°05' E 136°53'0 0.0
2018-Feb-16 23:59N 35°05' E 136°53'0 0.0
2018-Feb-16 23:29N 35°05' E 136°53'0 0.0
2018-Feb-16 22:59N 35°05' E 136°53'0 0.0
2018-Feb-16 22:29N 35°05' E 136°53'0 0.1
2018-Feb-16 21:59N 35°05' E 136°53'0 0.0
2018-Feb-16 21:29N 35°05' E 136°53'0 0.1
2018-Feb-16 20:59N 35°05' E 136°53'0 0.0
2018-Feb-16 20:29N 35°05' E 136°53'0 0.0
2018-Feb-16 19:59N 35°05' E 136°53'0 0.0
2018-Feb-16 19:29N 35°05' E 136°53'0 0.0
2018-Feb-16 18:59N 35°05' E 136°53'0 0.0
2018-Feb-16 18:29N 35°05' E 136°53'1 1.2
2018-Feb-16 18:00N 35°04' E 136°52'510.7
2018-Feb-16 17:30N 34°60' E 136°49'611.1
2018-Feb-16 17:00N 34°54' E 136°47'107 7.2
2018-Feb-16 02:12N 33°51' E 135°03'211.8
2018-Feb-16 02:00N 33°53' E 135°01'611.9
2018-Feb-16 01:30N 33°59' E 135°01'611.7
2018-Feb-16 01:00N 34°04' E 135°01'611.5
2018-Feb-16 00:30N 34°10' E 135°02'611.1
2018-Feb-16 00:00N 34°16' E 135°03'510.9
2018-Feb-15 23:30N 34°21' E 135°05'510.7
2018-Feb-15 23:00N 34°25' E 135°09'611.1
2018-Feb-15 22:30N 34°29' E 135°14'611.5
2018-Feb-15 22:00N 34°33' E 135°18'510.8
2018-Feb-15 21:30N 34°36' E 135°24'3 6.7
2018-Feb-15 21:00N 34°34' E 135°27'0 0.1
2018-Feb-15 20:27N 34°34' E 135°27'0 0.1
2018-Feb-15 19:57N 34°34' E 135°27'0 0.1
2018-Feb-15 19:30N 34°34' E 135°27'0 0.0
2018-Feb-15 19:00N 34°34' E 135°27'0 0.1
2018-Feb-15 18:30N 34°34' E 135°27'0 0.1
2018-Feb-15 17:57N 34°34' E 135°27'0 0.1
2018-Feb-15 17:29N 34°34' E 135°27'0 0.1
2018-Feb-15 16:56N 34°34' E 135°27'0 0.0
2018-Feb-15 16:30N 34°34' E 135°27'0 0.0
2018-Feb-15 15:57N 34°34' E 135°27'0 0.0
2018-Feb-15 15:27N 34°34' E 135°27'0 0.0
2018-Feb-15 14:56N 34°34' E 135°27'0 0.0
2018-Feb-15 14:27N 34°34' E 135°27'0 0.0
2018-Feb-15 14:00N 34°34' E 135°27'0 0.1
2018-Feb-15 13:30N 34°34' E 135°27'0 0.1
2018-Feb-15 13:00N 34°34' E 135°27'0 0.0
2018-Feb-15 12:30N 34°34' E 135°27'0 0.1
2018-Feb-15 11:56N 34°34' E 135°27'0 0.1
2018-Feb-15 11:26N 34°34' E 135°27'0 0.1
2018-Feb-15 10:56N 34°34' E 135°27'0 0.1
2018-Feb-15 10:21N 34°34' E 135°27'0 0.1
2018-Feb-15 09:54N 34°34' E 135°27'0 0.0
2018-Feb-15 09:30N 34°34' E 135°27'0 0.0
2018-Feb-15 08:58N 34°34' E 135°27'0 0.0
2018-Feb-15 08:22N 34°34' E 135°27'0 0.1
2018-Feb-15 07:55N 34°34' E 135°27'0 0.1
2018-Feb-15 07:28N 34°34' E 135°27'0 0.2
2018-Feb-15 07:00N 34°34' E 135°27'4 8.0
2018-Feb-15 06:31N 34°37' E 135°23'3 6.8
2018-Feb-15 06:00N 34°40' E 135°26'0 0.0
2018-Feb-15 05:29N 34°40' E 135°26'0 0.0
2018-Feb-15 04:59N 34°40' E 135°26'0 0.0
2018-Feb-15 04:29N 34°40' E 135°26'0 0.0
2018-Feb-15 03:59N 34°40' E 135°26'0 0.0
2018-Feb-15 03:29N 34°40' E 135°26'0 0.0
2018-Feb-15 02:59N 34°40' E 135°26'0 0.0
2018-Feb-15 02:29N 34°40' E 135°26'0 0.0
2018-Feb-15 01:59N 34°40' E 135°26'0 0.0
2018-Feb-15 01:29N 34°40' E 135°26'0 0.3
2018-Feb-15 01:00N 34°39' E 135°26'3 5.9
2018-Feb-15 00:30N 34°38' E 135°23'2 3.2
2018-Feb-14 23:59N 34°37' E 135°21'0 0.1
2018-Feb-14 23:30N 34°37' E 135°21'0 0.0
2018-Feb-14 22:59N 34°37' E 135°21'0 0.1
2018-Feb-14 22:30N 34°37' E 135°21'0 0.1
2018-Feb-14 21:59N 34°37' E 135°21'0 0.0
2018-Feb-14 21:30N 34°37' E 135°21'0 0.0
2018-Feb-14 20:59N 34°37' E 135°21'0 0.0
2018-Feb-14 20:29N 34°37' E 135°21'0 0.2
2018-Feb-14 19:59N 34°37' E 135°21'0 0.0
2018-Feb-14 19:29N 34°37' E 135°21'0 0.0
2018-Feb-14 19:00N 34°37' E 135°21'5 9.4
2018-Feb-14 18:30N 34°36' E 135°16'612.3
2018-Feb-14 18:01N 34°35' E 135°08'713.8
2018-Feb-14 17:31N 34°37' E 135°01'815.2
2018-Feb-14 17:00N 34°34' E 134°52'713.4
2018-Feb-14 16:30N 34°32' E 134°44'612.7
2018-Feb-14 16:00N 34°29' E 134°37'612.3
2018-Feb-14 15:30N 34°27' E 134°30'1412.3
2018-Feb-14 14:22N 34°24' E 134°14'0 0.0
2018-Feb-13 11:37N 34°24' E 134°14'213.3
2018-Feb-13 11:29N 34°24' E 134°16'612.9
2018-Feb-13 11:00N 34°25' E 134°24'  

Dump ship's entire track history